Time,TemperatureF,DewpointF,PressureIn,WindDirection,WindDirectionDegrees,WindSpeedMPH,WindSpeedGustMPH,Humidity,HourlyPrecipIn,Conditions,Clouds,dailyrainin,SoftwareType,DateUTC
2013-04-20 00:00:00,52.0,51.7,29.75,SSW,194,6.0,21.0,99,0.00,,---,0.00,VWS V14.01,2013-04-20 04:00:00,
2013-04-20 00:01:00,52.0,51.7,29.75,South,190,3.0,21.0,99,0.00,,---,0.00,VWS V14.01,2013-04-20 04:01:00,
2013-04-20 00:06:00,52.1,51.8,29.75,ESE,118,5.0,14.0,99,0.00,,---,0.00,VWS V14.01,2013-04-20 04:06:00,
2013-04-20 00:11:00,52.2,51.9,29.75,SSE,159,2.0,15.0,99,0.00,,---,0.00,VWS V14.01,2013-04-20 04:11:00,
2013-04-20 00:16:00,52.4,52.1,29.75,SSW,204,2.0,15.0,99,0.00,,---,0.00,VWS V14.01,2013-04-20 04:16:00,
2013-04-20 00:21:00,52.5,52.2,29.74,WSW,254,6.0,15.0,99,0.00,,---,0.00,VWS V14.01,2013-04-20 04:21:00,
2013-04-20 00:26:00,52.7,52.7,29.74,SW,215,3.0,15.0,100,0.00,,---,0.00,VWS V14.01,2013-04-20 04:26:00,
2013-04-20 00:30:00,52.7,52.7,29.74,SSW,210,7.0,24.0,100,0.00,,---,0.00,VWS V14.01,2013-04-20 04:30:00,
2013-04-20 00:31:00,52.8,52.8,29.74,South,184,6.0,24.0,100,0.00,,---,0.00,VWS V14.01,2013-04-20 04:31:00,
2013-04-20 00:36:00,52.6,52.3,29.74,SSE,167,5.0,16.0,99,0.00,,---,0.00,VWS V14.01,2013-04-20 04:36:00,
2013-04-20 00:41:00,52.5,52.2,29.73,SSW,207,7.0,16.0,99,0.00,,---,0.00,VWS V14.01,2013-04-20 04:41:00,
2013-04-20 00:46:00,52.4,52.1,29.73,SW,233,8.0,19.0,99,0.00,,---,0.00,VWS V14.01,2013-04-20 04:46:00,
2013-04-20 00:51:00,52.2,51.9,29.73,SW,222,11.0,19.0,99,0.00,,---,0.00,VWS V14.01,2013-04-20 04:51:00,
2013-04-20 00:56:00,52.2,51.9,29.73,SW,236,4.0,19.0,99,0.00,,---,0.00,VWS V14.01,2013-04-20 04:56:00,
2013-04-20 01:00:00,52.2,51.9,29.72,WSW,249,9.0,19.0,99,0.00,,---,0.00,VWS V14.01,2013-04-20 05:00:00,
2013-04-20 01:01:00,52.2,51.9,29.72,SW,222,8.0,19.0,99,0.00,,---,0.00,VWS V14.01,2013-04-20 05:01:00,
2013-04-20 01:05:00,52.1,51.8,29.72,WSW,240,10.0,15.0,99,0.00,,---,0.00,VWS V14.01,2013-04-20 05:05:00,
2013-04-20 01:10:00,52.0,51.7,29.72,SW,220,4.0,15.0,99,0.00,,---,0.00,VWS V14.01,2013-04-20 05:10:00,
2013-04-20 01:15:00,52.1,51.8,29.72,SW,221,6.0,15.0,99,0.00,,---,0.00,VWS V14.01,2013-04-20 05:15:00,
2013-04-20 01:20:00,52.1,51.8,29.71,WSW,243,6.0,15.0,99,0.00,,---,0.00,VWS V14.01,2013-04-20 05:20:00,
2013-04-20 01:25:00,52.1,51.8,29.71,South,173,5.0,18.0,99,0.00,,---,0.00,VWS V14.01,2013-04-20 05:25:00,
2013-04-20 01:30:00,52.4,52.4,29.70,SSW,200,9.0,18.0,100,0.00,,---,0.00,VWS V14.01,2013-04-20 05:30:00,
2013-04-20 01:35:00,52.6,52.6,29.70,SSW,200,8.0,15.0,100,0.00,,---,0.00,VWS V14.01,2013-04-20 05:35:00,
2013-04-20 01:40:00,52.6,52.6,29.69,SSW,210,7.0,15.0,100,0.00,,---,0.00,VWS V14.01,2013-04-20 05:40:00,
2013-04-20 01:45:00,52.5,52.5,29.69,SSW,205,5.0,15.0,100,0.00,,---,0.00,VWS V14.01,2013-04-20 05:45:00,
2013-04-20 01:50:00,52.6,52.6,29.70,SSW,212,8.0,15.0,100,0.00,,---,0.00,VWS V14.01,2013-04-20 05:50:00,
2013-04-20 01:55:00,52.5,52.5,29.70,SW,226,4.0,18.0,100,0.00,,---,0.00,VWS V14.01,2013-04-20 05:55:00,
2013-04-20 02:00:00,52.5,52.5,29.70,SSW,210,18.0,20.0,100,0.00,,---,0.00,VWS V14.01,2013-04-20 06:00:00,
2013-04-20 02:05:00,52.4,52.4,29.70,SSW,197,8.0,17.0,100,0.00,,---,0.00,VWS V14.01,2013-04-20 06:05:00,
2013-04-20 02:10:00,52.5,52.5,29.70,NE,53,1.0,17.0,100,0.00,,---,0.00,VWS V14.01,2013-04-20 06:10:00,
2013-04-20 02:15:00,52.8,52.8,29.70,WSW,246,8.0,17.0,100,0.00,,---,0.00,VWS V14.01,2013-04-20 06:15:00,
2013-04-20 02:20:00,53.1,53.1,29.69,ENE,72,2.0,17.0,100,0.01,,---,0.01,VWS V14.01,2013-04-20 06:20:00,
2013-04-20 02:25:00,53.4,53.4,29.70,WSW,240,5.0,17.0,100,0.01,,---,0.01,VWS V14.01,2013-04-20 06:25:00,
2013-04-20 02:30:00,53.4,53.4,29.70,SSW,205,6.0,17.0,100,0.01,,---,0.01,VWS V14.01,2013-04-20 06:30:00,
2013-04-20 02:35:00,53.2,53.2,29.69,SSW,208,8.0,15.0,100,0.01,,---,0.01,VWS V14.01,2013-04-20 06:35:00,
2013-04-20 02:40:00,53.1,53.1,29.69,SW,215,5.0,19.0,100,0.01,,---,0.01,VWS V14.01,2013-04-20 06:40:00,
2013-04-20 02:45:00,52.9,52.9,29.68,South,172,5.0,19.0,100,0.01,,---,0.01,VWS V14.01,2013-04-20 06:45:00,
2013-04-20 02:50:00,52.8,52.8,29.68,West,273,1.0,19.0,100,0.01,,---,0.01,VWS V14.01,2013-04-20 06:50:00,
2013-04-20 02:55:00,52.9,52.9,29.68,SE,135,3.0,19.0,100,0.01,,---,0.01,VWS V14.01,2013-04-20 06:55:00,
2013-04-20 03:00:00,52.9,52.9,29.68,South,174,6.0,19.0,100,0.01,,---,0.01,VWS V14.01,2013-04-20 07:00:00,
2013-04-20 03:05:00,53.2,53.2,29.67,SW,224,12.0,13.0,100,0.01,,---,0.01,VWS V14.01,2013-04-20 07:05:00,
2013-04-20 03:10:00,53.4,53.4,29.67,NW,309,1.0,15.0,100,0.01,,---,0.01,VWS V14.01,2013-04-20 07:10:00,
2013-04-20 03:15:00,53.4,53.4,29.67,West,260,4.0,15.0,100,0.01,,---,0.01,VWS V14.01,2013-04-20 07:15:00,
2013-04-20 03:20:00,53.4,53.4,29.67,East,93,2.0,15.0,100,0.01,,---,0.01,VWS V14.01,2013-04-20 07:20:00,
2013-04-20 03:25:00,53.4,53.4,29.67,WSW,256,4.0,15.0,100,0.01,,---,0.01,VWS V14.01,2013-04-20 07:25:00,
2013-04-20 03:30:00,53.4,53.4,29.66,SW,218,4.0,15.0,100,0.02,,---,0.02,VWS V14.01,2013-04-20 07:30:00,
2013-04-20 03:35:00,53.5,53.5,29.67,SW,232,3.0,10.0,100,0.01,,---,0.02,VWS V14.01,2013-04-20 07:35:00,
2013-04-20 03:40:00,53.5,53.5,29.67,SSW,208,7.0,17.0,100,0.01,,---,0.02,VWS V14.01,2013-04-20 07:40:00,
2013-04-20 03:45:00,53.5,53.5,29.66,West,278,6.0,17.0,100,0.01,,---,0.02,VWS V14.01,2013-04-20 07:45:00,
2013-04-20 03:50:00,53.4,53.4,29.66,West,270,7.0,17.0,100,0.01,,---,0.02,VWS V14.01,2013-04-20 07:50:00,
2013-04-20 03:55:00,53.4,53.4,29.66,SW,236,4.0,17.0,100,0.02,,---,0.03,VWS V14.01,2013-04-20 07:55:00,
2013-04-20 04:00:00,53.6,53.6,29.66,WSW,240,9.0,17.0,100,0.02,,---,0.03,VWS V14.01,2013-04-20 08:00:00,
2013-04-20 04:05:00,53.6,53.6,29.65,SSW,211,6.0,16.0,100,0.02,,---,0.03,VWS V14.01,2013-04-20 08:05:00,
2013-04-20 04:10:00,53.7,53.7,29.64,SSW,205,8.0,16.0,100,0.03,,---,0.04,VWS V14.01,2013-04-20 08:10:00,
2013-04-20 04:15:00,53.8,53.8,29.64,SSE,167,6.0,16.0,100,0.03,,---,0.04,VWS V14.01,2013-04-20 08:15:00,
2013-04-20 04:20:00,53.9,53.9,29.64,SE,139,2.0,16.0,100,0.03,,---,0.04,VWS V14.01,2013-04-20 08:20:00,
2013-04-20 04:25:00,53.9,53.9,29.63,SE,143,0.0,16.0,100,0.03,,---,0.04,VWS V14.01,2013-04-20 08:25:00,
2013-04-20 04:30:00,53.7,53.7,29.63,SW,229,5.0,17.0,100,0.03,,---,0.04,VWS V14.01,2013-04-20 08:30:00,
2013-04-20 04:35:00,53.3,53.0,29.64,WSW,249,16.0,17.0,99,0.02,,---,0.04,VWS V14.01,2013-04-20 08:35:00,
2013-04-20 04:40:00,52.8,52.5,29.64,SSW,207,7.0,17.0,99,0.03,,---,0.05,VWS V14.01,2013-04-20 08:40:00,
2013-04-20 04:45:00,52.6,52.3,29.64,West,273,12.0,20.0,99,0.03,,---,0.05,VWS V14.01,2013-04-20 08:45:00,
2013-04-20 04:50:00,52.4,52.1,29.64,SW,224,13.0,20.0,99,0.03,,---,0.05,VWS V14.01,2013-04-20 08:50:00,
2013-04-20 04:55:00,52.3,52.0,29.64,South,191,7.0,22.0,99,0.03,,---,0.05,VWS V14.01,2013-04-20 08:55:00,
2013-04-20 05:00:00,52.3,52.3,29.64,WSW,242,2.0,22.0,100,0.03,,---,0.05,VWS V14.01,2013-04-20 09:00:00,
2013-04-20 05:05:00,52.4,52.4,29.64,WSW,257,11.0,18.0,100,0.02,,---,0.05,VWS V14.01,2013-04-20 09:05:00,
2013-04-20 05:10:00,52.4,52.4,29.64,SW,224,2.0,18.0,100,0.02,,---,0.05,VWS V14.01,2013-04-20 09:10:00,
2013-04-20 05:15:00,52.4,52.4,29.64,SSW,201,4.0,21.0,100,0.02,,---,0.05,VWS V14.01,2013-04-20 09:15:00,
2013-04-20 05:20:00,52.3,52.3,29.64,SSW,211,9.0,21.0,100,0.02,,---,0.05,VWS V14.01,2013-04-20 09:20:00,
2013-04-20 05:25:00,52.3,52.3,29.64,SW,215,13.0,21.0,100,0.02,,---,0.05,VWS V14.01,2013-04-20 09:25:00,
2013-04-20 05:30:00,52.4,52.4,29.64,SSW,210,3.0,21.0,100,0.02,,---,0.05,VWS V14.01,2013-04-20 09:30:00,
2013-04-20 05:35:00,52.7,52.7,29.64,WNW,303,2.0,12.0,100,0.01,,---,0.05,VWS V14.01,2013-04-20 09:35:00,
2013-04-20 05:40:00,53.0,53.0,29.64,West,262,2.0,15.0,100,0.01,,---,0.05,VWS V14.01,2013-04-20 09:40:00,
2013-04-20 05:45:00,52.8,52.8,29.65,West,259,10.0,15.0,100,0.01,,---,0.05,VWS V14.01,2013-04-20 09:45:00,
2013-04-20 05:50:00,52.7,52.7,29.65,SE,142,4.0,15.0,100,0.01,,---,0.05,VWS V14.01,2013-04-20 09:50:00,
2013-04-20 05:55:00,52.6,52.6,29.65,SSW,211,4.0,15.0,100,0.01,,---,0.05,VWS V14.01,2013-04-20 09:55:00,
2013-04-20 06:00:00,52.7,52.7,29.65,West,273,8.0,16.0,100,0.02,,---,0.06,VWS V14.01,2013-04-20 10:00:00,
2013-04-20 06:05:00,52.6,52.6,29.65,WSW,243,6.0,14.0,100,0.01,,---,0.06,VWS V14.01,2013-04-20 10:05:00,
2013-04-20 06:10:00,52.5,52.5,29.65,SE,141,5.0,14.0,100,0.01,,---,0.06,VWS V14.01,2013-04-20 10:10:00,
2013-04-20 06:15:00,52.2,52.2,29.65,SW,219,3.0,14.0,100,0.01,,---,0.06,VWS V14.01,2013-04-20 10:15:00,
2013-04-20 06:20:00,51.9,51.6,29.65,SW,222,8.0,14.0,99,0.02,,---,0.07,VWS V14.01,2013-04-20 10:20:00,
2013-04-20 06:25:00,51.8,51.5,29.65,West,278,3.0,15.0,99,0.02,,---,0.07,VWS V14.01,2013-04-20 10:25:00,
2013-04-20 06:30:00,51.8,51.8,29.65,WNW,300,5.0,15.0,100,0.02,,---,0.07,VWS V14.01,2013-04-20 10:30:00,
2013-04-20 06:35:00,51.8,51.8,29.65,ENE,63,6.0,9.0,100,0.02,,---,0.07,VWS V14.01,2013-04-20 10:35:00,
2013-04-20 06:40:00,52.0,52.0,29.64,NNW,338,1.0,9.0,100,0.03,,---,0.08,VWS V14.01,2013-04-20 10:40:00,
2013-04-20 06:45:00,52.0,52.0,29.66,NW,305,6.0,13.0,100,0.04,,---,0.09,VWS V14.01,2013-04-20 10:45:00,
2013-04-20 06:50:00,51.9,51.9,29.66,SE,141,1.0,13.0,100,0.05,,---,0.10,VWS V14.01,2013-04-20 10:50:00,
2013-04-20 06:55:00,51.7,51.7,29.65,SW,218,7.0,13.0,100,0.05,,---,0.10,VWS V14.01,2013-04-20 10:55:00,
2013-04-20 07:00:00,51.5,51.2,29.65,SE,146,7.0,14.0,99,0.06,,---,0.11,VWS V14.01,2013-04-20 11:00:00,
2013-04-20 07:05:00,51.3,51.0,29.65,South,172,2.0,6.0,99,0.05,,---,0.11,VWS V14.01,2013-04-20 11:05:00,
2013-04-20 07:10:00,51.0,50.7,29.65,SW,225,4.0,12.0,99,0.05,,---,0.11,VWS V14.01,2013-04-20 11:10:00,
2013-04-20 07:14:00,50.8,50.5,29.65,SSE,150,6.0,12.0,99,0.05,,---,0.11,VWS V14.01,2013-04-20 11:14:00,
2013-04-20 07:19:00,50.6,50.3,29.66,SSW,194,2.0,13.0,99,0.05,,---,0.11,VWS V14.01,2013-04-20 11:19:00,
2013-04-20 07:24:00,50.5,50.2,29.66,WNW,300,2.0,13.0,99,0.06,,---,0.12,VWS V14.01,2013-04-20 11:24:00,
2013-04-20 07:29:00,50.4,50.1,29.66,SW,224,6.0,16.0,99,0.07,,---,0.13,VWS V14.01,2013-04-20 11:29:00,
2013-04-20 07:30:00,50.3,50.0,29.66,SW,231,1.0,16.0,99,0.07,,---,0.13,VWS V14.01,2013-04-20 11:30:00,
2013-04-20 07:34:00,50.2,49.9,29.66,SW,219,9.0,14.0,99,0.07,,---,0.14,VWS V14.01,2013-04-20 11:34:00,
2013-04-20 07:39:00,50.2,49.9,29.66,WSW,253,1.0,14.0,99,0.08,,---,0.15,VWS V14.01,2013-04-20 11:39:00,
2013-04-20 07:44:00,50.1,49.8,29.66,SSW,210,5.0,14.0,99,0.08,,---,0.15,VWS V14.01,2013-04-20 11:44:00,
2013-04-20 07:49:00,50.0,49.7,29.66,SSW,201,0.0,14.0,99,0.08,,---,0.15,VWS V14.01,2013-04-20 11:49:00,
2013-04-20 07:54:00,49.8,49.5,29.66,SW,219,1.0,14.0,99,0.08,,---,0.15,VWS V14.01,2013-04-20 11:54:00,
2013-04-20 07:59:00,49.6,49.3,29.66,West,281,1.0,14.0,99,0.09,,---,0.16,VWS V14.01,2013-04-20 11:59:00,
2013-04-20 08:00:00,49.6,49.3,29.65,SW,236,4.0,14.0,99,0.09,,---,0.16,VWS V14.01,2013-04-20 12:00:00,
2013-04-20 08:04:00,49.5,49.2,29.66,SSW,211,4.0,5.0,99,0.05,,---,0.16,VWS V14.01,2013-04-20 12:04:00,
2013-04-20 08:09:00,49.4,49.1,29.65,SW,233,0.0,7.0,99,0.06,,---,0.17,VWS V14.01,2013-04-20 12:09:00,
2013-04-20 08:14:00,49.3,49.0,29.65,West,263,1.0,7.0,99,0.06,,---,0.17,VWS V14.01,2013-04-20 12:14:00,
2013-04-20 08:19:00,49.2,48.9,29.67,SW,221,4.0,8.0,99,0.06,,---,0.17,VWS V14.01,2013-04-20 12:19:00,
2013-04-20 08:24:00,49.1,48.8,29.67,WSW,238,2.0,8.0,99,0.07,,---,0.18,VWS V14.01,2013-04-20 12:24:00,
2013-04-20 08:29:00,49.0,48.7,29.67,SSW,212,4.0,8.0,99,0.07,,---,0.18,VWS V14.01,2013-04-20 12:29:00,
2013-04-20 08:30:00,49.0,48.7,29.67,WNW,301,2.0,8.0,99,0.08,,---,0.19,VWS V14.01,2013-04-20 12:30:00,
2013-04-20 08:34:00,48.9,48.6,29.67,SW,215,3.0,6.0,99,0.06,,---,0.19,VWS V14.01,2013-04-20 12:34:00,
2013-04-20 08:39:00,48.7,48.4,29.68,SSW,208,2.0,6.0,99,0.06,,---,0.19,VWS V14.01,2013-04-20 12:39:00,
2013-04-20 08:44:00,48.6,48.3,29.68,SW,232,2.0,6.0,99,0.07,,---,0.20,VWS V14.01,2013-04-20 12:44:00,
2013-04-20 08:49:00,48.4,48.1,29.68,NW,317,1.0,6.0,99,0.07,,---,0.20,VWS V14.01,2013-04-20 12:49:00,
2013-04-20 08:54:00,48.4,48.1,29.68,WSW,240,0.0,7.0,99,0.08,,---,0.21,VWS V14.01,2013-04-20 12:54:00,
2013-04-20 08:59:00,48.4,48.1,29.69,West,274,2.0,7.0,99,0.08,,---,0.21,VWS V14.01,2013-04-20 12:59:00,
2013-04-20 09:00:00,48.5,48.2,29.69,NW,326,1.0,7.0,99,0.08,,---,0.21,VWS V14.01,2013-04-20 13:00:00,
2013-04-20 09:04:00,48.5,48.2,29.69,WNW,290,4.0,7.0,99,0.05,,---,0.21,VWS V14.01,2013-04-20 13:04:00,
2013-04-20 09:09:00,48.3,48.0,29.69,NW,309,2.0,9.0,99,0.06,,---,0.22,VWS V14.01,2013-04-20 13:09:00,
2013-04-20 09:14:00,48.3,48.0,29.69,WNW,287,2.0,9.0,99,0.06,,---,0.22,VWS V14.01,2013-04-20 13:14:00,
2013-04-20 09:19:00,48.5,48.2,29.69,West,280,3.0,9.0,99,0.06,,---,0.22,VWS V14.01,2013-04-20 13:19:00,
2013-04-20 09:24:00,49.0,49.0,29.68,West,269,1.0,9.0,100,0.07,,---,0.23,VWS V14.01,2013-04-20 13:24:00,
2013-04-20 09:29:00,49.6,49.6,29.69,WSW,253,0.0,9.0,100,0.07,,---,0.23,VWS V14.01,2013-04-20 13:29:00,
2013-04-20 09:30:00,49.9,49.9,29.68,NNW,334,0.0,9.0,100,0.07,,---,0.23,VWS V14.01,2013-04-20 13:30:00,
2013-04-20 09:34:00,50.3,50.3,29.69,West,273,0.0,3.0,100,0.04,,---,0.23,VWS V14.01,2013-04-20 13:34:00,
2013-04-20 09:39:00,50.8,50.8,29.69,NW,314,0.0,4.0,100,0.04,,---,0.23,VWS V14.01,2013-04-20 13:39:00,
2013-04-20 09:44:00,51.1,51.1,29.70,WNW,285,2.0,4.0,100,0.05,,---,0.24,VWS V14.01,2013-04-20 13:44:00,
2013-04-20 09:49:00,51.2,51.2,29.71,West,278,0.0,9.0,100,0.05,,---,0.24,VWS V14.01,2013-04-20 13:49:00,
2013-04-20 09:54:00,51.1,50.8,29.71,NNW,333,4.0,9.0,99,0.06,,---,0.25,VWS V14.01,2013-04-20 13:54:00,
2013-04-20 09:59:00,51.1,50.8,29.73,NW,307,3.0,9.0,99,0.06,,---,0.25,VWS V14.01,2013-04-20 13:59:00,
2013-04-20 10:00:00,50.9,50.6,29.72,NW,322,4.0,10.0,99,0.07,,---,0.26,VWS V14.01,2013-04-20 14:00:00,
2013-04-20 10:04:00,50.8,50.5,29.72,NW,314,3.0,8.0,99,0.05,,---,0.26,VWS V14.01,2013-04-20 14:04:00,
2013-04-20 10:09:00,50.7,50.2,29.72,NW,321,6.0,9.0,98,0.06,,---,0.27,VWS V14.01,2013-04-20 14:09:00,
2013-04-20 10:14:00,50.6,50.1,29.70,WNW,302,3.0,9.0,98,0.06,,---,0.27,VWS V14.01,2013-04-20 14:14:00,
2013-04-20 10:19:00,50.7,50.2,29.70,NW,316,1.0,9.0,98,0.07,,---,0.28,VWS V14.01,2013-04-20 14:19:00,
2013-04-20 10:24:00,50.9,50.4,29.71,WSW,257,0.0,9.0,98,0.07,,---,0.28,VWS V14.01,2013-04-20 14:24:00,
2013-04-20 10:29:00,51.0,50.5,29.72,NW,316,0.0,9.0,98,0.07,,---,0.28,VWS V14.01,2013-04-20 14:29:00,
2013-04-20 10:30:00,51.2,50.9,29.72,WNW,300,1.0,9.0,99,0.08,,---,0.29,VWS V14.01,2013-04-20 14:30:00,
2013-04-20 10:34:00,51.1,50.6,29.72,WNW,288,1.0,9.0,98,0.06,,---,0.29,VWS V14.01,2013-04-20 14:34:00,
2013-04-20 10:39:00,51.2,50.7,29.73,WNW,289,0.0,9.0,98,0.06,,---,0.29,VWS V14.01,2013-04-20 14:39:00,
2013-04-20 10:44:00,51.2,50.7,29.74,WNW,290,1.0,9.0,98,0.07,,---,0.30,VWS V14.01,2013-04-20 14:44:00,
2013-04-20 10:49:00,51.0,50.2,29.72,West,278,1.0,9.0,97,0.07,,---,0.30,VWS V14.01,2013-04-20 14:49:00,
2013-04-20 10:54:00,51.2,50.7,29.73,WSW,239,0.0,9.0,98,0.07,,---,0.30,VWS V14.01,2013-04-20 14:54:00,
2013-04-20 10:59:00,51.2,50.7,29.73,NNW,330,2.0,9.0,98,0.07,,---,0.30,VWS V14.01,2013-04-20 14:59:00,
2013-04-20 11:00:00,51.1,50.6,29.73,NW,308,2.0,9.0,98,0.08,,---,0.31,VWS V14.01,2013-04-20 15:00:00,
2013-04-20 11:04:00,50.9,50.4,29.72,NNW,333,0.0,5.0,98,0.05,,---,0.31,VWS V14.01,2013-04-20 15:04:00,
2013-04-20 11:09:00,50.5,49.7,29.74,NW,309,1.0,6.0,97,0.05,,---,0.31,VWS V14.01,2013-04-20 15:09:00,
2013-04-20 11:14:00,50.2,49.7,29.73,North,349,0.0,7.0,98,0.05,,---,0.31,VWS V14.01,2013-04-20 15:14:00,
2013-04-20 11:19:00,50.0,49.5,29.72,West,270,1.0,7.0,98,0.05,,---,0.31,VWS V14.01,2013-04-20 15:19:00,
2013-04-20 11:24:00,49.7,49.2,29.74,North,359,1.0,7.0,98,0.05,,---,0.31,VWS V14.01,2013-04-20 15:24:00,
2013-04-20 11:29:00,49.5,49.0,29.74,NNW,328,1.0,7.0,98,0.05,,---,0.31,VWS V14.01,2013-04-20 15:29:00,
2013-04-20 11:30:00,49.5,49.0,29.75,NNW,345,0.0,7.0,98,0.05,,---,0.31,VWS V14.01,2013-04-20 15:30:00,
2013-04-20 11:34:00,49.5,49.0,29.74,NW,304,0.0,5.0,98,0.02,,---,0.31,VWS V14.01,2013-04-20 15:34:00,
2013-04-20 11:39:00,49.4,48.9,29.75,WNW,284,2.0,8.0,98,0.02,,---,0.31,VWS V14.01,2013-04-20 15:39:00,
2013-04-20 11:44:00,49.2,48.7,29.76,NW,324,1.0,8.0,98,0.02,,---,0.31,VWS V14.01,2013-04-20 15:44:00,
2013-04-20 11:49:00,48.3,46.9,29.77,NW,325,4.0,14.0,95,0.02,,---,0.31,VWS V14.01,2013-04-20 15:49:00,
2013-04-20 11:54:00,47.2,45.6,29.77,NW,314,3.0,14.0,94,0.02,,---,0.31,VWS V14.01,2013-04-20 15:54:00,
2013-04-20 11:59:00,46.4,44.5,29.77,WNW,285,4.0,14.0,93,0.02,,---,0.31,VWS V14.01,2013-04-20 15:59:00,
2013-04-20 12:00:00,46.2,44.3,29.77,WNW,301,6.0,14.0,93,0.02,,---,0.31,VWS V14.01,2013-04-20 16:00:00,
2013-04-20 12:04:00,46.0,43.8,29.78,NW,305,3.0,11.0,92,0.00,,---,0.31,VWS V14.01,2013-04-20 16:04:00,
2013-04-20 12:09:00,45.8,43.3,29.78,WNW,290,2.0,12.0,91,0.00,,---,0.31,VWS V14.01,2013-04-20 16:09:00,
2013-04-20 12:14:00,45.9,43.4,29.78,NNW,335,6.0,12.0,91,0.00,,---,0.31,VWS V14.01,2013-04-20 16:14:00,
2013-04-20 12:19:00,45.9,43.4,29.78,WNW,297,0.0,12.0,91,0.00,,---,0.31,VWS V14.01,2013-04-20 16:19:00,
2013-04-20 12:24:00,45.8,43.0,29.78,West,277,1.0,12.0,90,0.00,,---,0.31,VWS V14.01,2013-04-20 16:24:00,
2013-04-20 12:29:00,46.0,44.1,29.79,West,281,9.0,12.0,93,0.00,,---,0.31,VWS V14.01,2013-04-20 16:29:00,
2013-04-20 12:30:00,46.0,43.5,29.79,North,11,1.0,12.0,91,0.00,,---,0.31,VWS V14.01,2013-04-20 16:30:00,
2013-04-20 12:34:00,46.2,43.7,29.79,WSW,257,2.0,3.0,91,0.00,,---,0.31,VWS V14.01,2013-04-20 16:34:00,
2013-04-20 12:39:00,46.4,43.3,29.79,NW,311,6.0,9.0,89,0.00,,---,0.31,VWS V14.01,2013-04-20 16:39:00,
2013-04-20 12:44:00,46.7,42.7,29.79,WNW,297,2.0,9.0,86,0.00,,---,0.31,VWS V14.01,2013-04-20 16:44:00,
2013-04-20 12:49:00,47.0,43.6,29.79,NW,315,2.0,9.0,88,0.00,,---,0.31,VWS V14.01,2013-04-20 16:49:00,
2013-04-20 12:54:00,47.1,44.0,29.79,WNW,302,2.0,9.0,89,0.00,,---,0.31,VWS V14.01,2013-04-20 16:54:00,
2013-04-20 12:59:00,47.1,43.1,29.79,NW,316,1.0,9.0,86,0.00,,---,0.31,VWS V14.01,2013-04-20 16:59:00,
2013-04-20 13:00:00,47.3,43.0,29.79,North,349,0.0,9.0,85,0.00,,---,0.31,VWS V14.01,2013-04-20 17:00:00,
2013-04-20 13:04:00,47.5,43.8,29.79,NW,309,0.0,4.0,87,0.00,,---,0.31,VWS V14.01,2013-04-20 17:04:00,
2013-04-20 13:09:00,47.8,44.1,29.79,WNW,290,3.0,7.0,87,0.00,,---,0.31,VWS V14.01,2013-04-20 17:09:00,
2013-04-20 13:14:00,47.9,43.3,29.80,NW,307,1.0,7.0,84,0.00,,---,0.31,VWS V14.01,2013-04-20 17:14:00,
2013-04-20 13:19:00,48.0,43.7,29.80,NNW,336,4.0,9.0,85,0.00,,---,0.31,VWS V14.01,2013-04-20 17:19:00,
2013-04-20 13:24:00,48.0,43.7,29.80,NW,304,1.0,9.0,85,0.00,,---,0.31,VWS V14.01,2013-04-20 17:24:00,
2013-04-20 13:29:00,48.1,43.2,29.81,West,259,0.0,9.0,83,0.00,,---,0.31,VWS V14.01,2013-04-20 17:29:00,
2013-04-20 13:30:00,48.2,43.9,29.81,WNW,284,2.0,9.0,85,0.00,,---,0.31,VWS V14.01,2013-04-20 17:30:00,
2013-04-20 13:34:00,48.2,43.0,29.81,NW,324,0.0,9.0,82,0.00,,---,0.31,VWS V14.01,2013-04-20 17:34:00,
2013-04-20 13:38:00,48.5,43.9,29.81,West,262,0.0,9.0,84,0.00,,---,0.31,VWS V14.01,2013-04-20 17:38:00,
2013-04-20 13:43:00,49.1,44.2,29.81,WNW,295,4.0,9.0,83,0.00,,---,0.31,VWS V14.01,2013-04-20 17:43:00,
2013-04-20 13:48:00,49.3,43.1,29.81,West,262,0.0,9.0,79,0.00,,---,0.31,VWS V14.01,2013-04-20 17:48:00,
2013-04-20 13:53:00,49.3,44.0,29.80,West,269,2.0,9.0,82,0.00,,---,0.31,VWS V14.01,2013-04-20 17:53:00,
2013-04-20 13:58:00,50.0,44.1,29.80,WNW,300,3.0,9.0,80,0.00,,---,0.31,VWS V14.01,2013-04-20 17:58:00,
2013-04-20 14:00:00,50.6,45.0,29.81,NNW,330,1.0,9.0,81,0.00,,---,0.31,VWS V14.01,2013-04-20 18:00:00,
2013-04-20 14:03:00,51.1,44.8,29.80,WNW,300,4.0,4.0,79,0.00,,---,0.31,VWS V14.01,2013-04-20 18:03:00,
2013-04-20 14:08:00,51.7,44.7,29.80,West,274,3.0,5.0,77,0.00,,---,0.31,VWS V14.01,2013-04-20 18:08:00,
2013-04-20 14:13:00,52.0,44.7,29.81,West,281,3.0,6.0,76,0.00,,---,0.31,VWS V14.01,2013-04-20 18:13:00,
2013-04-20 14:18:00,52.0,44.0,29.80,West,276,6.0,7.0,74,0.00,,---,0.31,VWS V14.01,2013-04-20 18:18:00,
2013-04-20 14:23:00,52.1,45.5,29.81,SW,233,1.0,7.0,78,0.00,,---,0.31,VWS V14.01,2013-04-20 18:23:00,
2013-04-20 14:28:00,52.0,44.3,29.80,West,267,2.0,7.0,75,0.00,,---,0.31,VWS V14.01,2013-04-20 18:28:00,
2013-04-20 14:30:00,51.6,44.0,29.81,WNW,297,3.0,7.0,75,0.00,,---,0.31,VWS V14.01,2013-04-20 18:30:00,
2013-04-20 14:33:00,51.3,43.7,29.81,West,270,2.0,4.0,75,0.00,,---,0.31,VWS V14.01,2013-04-20 18:33:00,
2013-04-20 14:38:00,51.8,45.5,29.81,SSE,148,0.0,4.0,79,0.00,,---,0.31,VWS V14.01,2013-04-20 18:38:00,
2013-04-20 14:43:00,52.4,45.1,29.82,WNW,287,2.0,8.0,76,0.00,,---,0.31,VWS V14.01,2013-04-20 18:43:00,
2013-04-20 14:48:00,52.5,45.5,29.81,NW,312,3.0,8.0,77,0.00,,---,0.31,VWS V14.01,2013-04-20 18:48:00,
2013-04-20 14:53:00,53.4,46.0,29.81,East,94,2.0,8.0,76,0.00,,---,0.31,VWS V14.01,2013-04-20 18:53:00,
2013-04-20 14:58:00,54.1,45.7,29.81,SSW,204,4.0,9.0,73,0.00,,---,0.31,VWS V14.01,2013-04-20 18:58:00,
2013-04-20 15:00:00,54.1,45.7,29.81,WNW,302,2.0,9.0,73,0.00,,---,0.31,VWS V14.01,2013-04-20 19:00:00,
2013-04-20 15:03:00,54.3,45.8,29.82,SW,221,0.0,2.0,73,0.00,,---,0.31,VWS V14.01,2013-04-20 19:03:00,
2013-04-20 15:08:00,54.1,45.7,29.82,SSW,207,2.0,7.0,73,0.00,,---,0.31,VWS V14.01,2013-04-20 19:08:00,
2013-04-20 15:13:00,53.5,45.1,29.82,NNW,332,3.0,7.0,73,0.00,,---,0.31,VWS V14.01,2013-04-20 19:13:00,
2013-04-20 15:18:00,53.4,45.3,29.82,WSW,248,4.0,7.0,74,0.00,,---,0.31,VWS V14.01,2013-04-20 19:18:00,
2013-04-20 15:23:00,53.1,44.7,29.82,NNW,333,3.0,10.0,73,0.00,,---,0.31,VWS V14.01,2013-04-20 19:23:00,
2013-04-20 15:28:00,53.0,44.6,29.83,WNW,297,1.0,10.0,73,0.00,,---,0.31,VWS V14.01,2013-04-20 19:28:00,
2013-04-20 15:30:00,53.4,45.3,29.83,WSW,244,8.0,10.0,74,0.00,,---,0.31,VWS V14.01,2013-04-20 19:30:00,
2013-04-20 15:33:00,53.3,44.9,29.83,WSW,249,3.0,9.0,73,0.00,,---,0.31,VWS V14.01,2013-04-20 19:33:00,
2013-04-20 15:38:00,53.4,45.7,29.83,SW,224,0.0,9.0,75,0.00,,---,0.31,VWS V14.01,2013-04-20 19:38:00,
2013-04-20 15:43:00,53.7,45.6,29.83,WSW,243,1.0,9.0,74,0.00,,---,0.31,VWS V14.01,2013-04-20 19:43:00,
2013-04-20 15:48:00,53.8,46.1,29.83,SW,221,6.0,9.0,75,0.00,,---,0.31,VWS V14.01,2013-04-20 19:48:00,
2013-04-20 15:53:00,53.2,46.2,29.84,South,184,3.0,9.0,77,0.00,,---,0.31,VWS V14.01,2013-04-20 19:53:00,
2013-04-20 15:58:00,52.7,45.7,29.84,SSW,201,7.0,11.0,77,0.00,,---,0.31,VWS V14.01,2013-04-20 19:58:00,
2013-04-20 16:00:00,52.2,45.2,29.84,WSW,255,3.0,13.0,77,0.00,,---,0.31,VWS V14.01,2013-04-20 20:00:00,
2013-04-20 16:03:00,51.9,45.3,29.84,SW,222,6.0,10.0,78,0.00,,---,0.31,VWS V14.01,2013-04-20 20:03:00,
2013-04-20 16:08:00,51.3,44.7,29.85,SW,229,5.0,10.0,78,0.00,,---,0.31,VWS V14.01,2013-04-20 20:08:00,
2013-04-20 16:13:00,50.7,44.8,29.85,WSW,240,0.0,11.0,80,0.00,,---,0.31,VWS V14.01,2013-04-20 20:13:00,
2013-04-20 16:18:00,50.5,44.9,29.85,SW,226,3.0,11.0,81,0.00,,---,0.31,VWS V14.01,2013-04-20 20:18:00,
2013-04-20 16:23:00,50.5,45.5,29.86,West,281,4.0,11.0,83,0.00,,---,0.31,VWS V14.01,2013-04-20 20:23:00,
2013-04-20 16:28:00,50.5,45.2,29.86,WSW,242,1.0,11.0,82,0.00,,---,0.31,VWS V14.01,2013-04-20 20:28:00,
2013-04-20 16:30:00,50.7,45.7,29.86,WNW,298,3.0,11.0,83,0.00,,---,0.31,VWS V14.01,2013-04-20 20:30:00,
2013-04-20 16:33:00,50.9,46.2,29.86,West,262,0.0,5.0,84,0.00,,---,0.31,VWS V14.01,2013-04-20 20:33:00,
2013-04-20 16:38:00,51.2,45.9,29.86,WSW,257,0.0,6.0,82,0.00,,---,0.31,VWS V14.01,2013-04-20 20:38:00,
2013-04-20 16:43:00,51.2,45.9,29.87,WNW,298,1.0,13.0,82,0.00,,---,0.31,VWS V14.01,2013-04-20 20:43:00,
2013-04-20 16:48:00,50.2,44.6,29.87,SSW,210,4.0,13.0,81,0.00,,---,0.31,VWS V14.01,2013-04-20 20:48:00,
2013-04-20 16:53:00,49.8,44.5,29.87,SW,218,1.0,13.0,82,0.00,,---,0.31,VWS V14.01,2013-04-20 20:53:00,
2013-04-20 16:58:00,49.6,44.3,29.87,SW,220,0.0,13.0,82,0.00,,---,0.31,VWS V14.01,2013-04-20 20:58:00,
2013-04-20 17:00:00,49.6,44.7,29.87,West,277,0.0,13.0,83,0.00,,---,0.31,VWS V14.01,2013-04-20 21:00:00,
2013-04-20 17:03:00,49.7,44.8,29.87,SW,222,0.0,2.0,83,0.00,,---,0.31,VWS V14.01,2013-04-20 21:03:00,
2013-04-20 17:08:00,49.5,43.6,29.88,SSE,167,2.0,8.0,80,0.00,,---,0.31,VWS V14.01,2013-04-20 21:08:00,
2013-04-20 17:13:00,49.2,43.0,29.88,West,259,2.0,8.0,79,0.00,,---,0.31,VWS V14.01,2013-04-20 21:13:00,
2013-04-20 17:18:00,48.9,42.7,29.88,SW,218,2.0,8.0,79,0.00,,---,0.31,VWS V14.01,2013-04-20 21:18:00,
2013-04-20 17:23:00,48.7,42.8,29.88,SSW,211,1.0,8.0,80,0.00,,---,0.31,VWS V14.01,2013-04-20 21:23:00,
2013-04-20 17:28:00,48.5,42.6,29.88,WSW,245,4.0,8.0,80,0.00,,---,0.31,VWS V14.01,2013-04-20 21:28:00,
2013-04-20 17:30:00,48.2,42.3,29.89,SW,231,2.0,8.0,80,0.00,,---,0.31,VWS V14.01,2013-04-20 21:30:00,
2013-04-20 17:33:00,48.1,42.2,29.89,SSW,211,1.0,3.0,80,0.00,,---,0.31,VWS V14.01,2013-04-20 21:33:00,
2013-04-20 17:38:00,47.9,42.0,29.89,WSW,252,0.0,6.0,80,0.00,,---,0.31,VWS V14.01,2013-04-20 21:38:00,
2013-04-20 17:43:00,47.8,42.6,29.89,SW,227,2.0,6.0,82,0.00,,---,0.31,VWS V14.01,2013-04-20 21:43:00,
2013-04-20 17:48:00,47.8,42.6,29.90,WSW,242,0.0,6.0,82,0.00,,---,0.31,VWS V14.01,2013-04-20 21:48:00,
2013-04-20 17:53:00,47.8,42.6,29.90,West,266,0.0,6.0,82,0.00,,---,0.31,VWS V14.01,2013-04-20 21:53:00,
2013-04-20 17:58:00,47.6,42.1,29.90,WSW,239,1.0,6.0,81,0.00,,---,0.31,VWS V14.01,2013-04-20 21:58:00,
2013-04-20 18:00:00,47.5,42.3,29.91,WNW,302,5.0,6.0,82,0.00,,---,0.31,VWS V14.01,2013-04-20 22:00:00,
2013-04-20 18:03:00,47.3,41.8,29.91,NNW,341,0.0,9.0,81,0.00,,---,0.31,VWS V14.01,2013-04-20 22:03:00,
2013-04-20 18:08:00,47.1,41.6,29.91,NW,312,2.0,9.0,81,0.00,,---,0.31,VWS V14.01,2013-04-20 22:08:00,
2013-04-20 18:13:00,46.9,41.4,29.91,WNW,299,1.0,9.0,81,0.00,,---,0.31,VWS V14.01,2013-04-20 22:13:00,
2013-04-20 18:18:00,46.6,41.1,29.91,West,267,3.0,9.0,81,0.00,,---,0.31,VWS V14.01,2013-04-20 22:18:00,
2013-04-20 18:23:00,46.4,41.5,29.91,NW,307,0.0,9.0,83,0.00,,---,0.31,VWS V14.01,2013-04-20 22:23:00,
2013-04-20 18:28:00,46.2,41.0,29.91,West,274,0.0,9.0,82,0.00,,---,0.31,VWS V14.01,2013-04-20 22:28:00,
2013-04-20 18:30:00,46.1,41.2,29.92,South,188,0.0,9.0,83,0.00,,---,0.31,VWS V14.01,2013-04-20 22:30:00,
2013-04-20 18:33:00,46.1,41.2,29.92,NW,315,1.0,7.0,83,0.00,,---,0.31,VWS V14.01,2013-04-20 22:33:00,
2013-04-20 18:38:00,45.9,41.0,29.92,West,259,5.0,8.0,83,0.00,,---,0.31,VWS V14.01,2013-04-20 22:38:00,
2013-04-20 18:43:00,45.7,40.8,29.92,WSW,252,0.0,8.0,83,0.00,,---,0.31,VWS V14.01,2013-04-20 22:43:00,
2013-04-20 18:48:00,45.6,41.0,29.92,WNW,293,0.0,8.0,84,0.00,,---,0.31,VWS V14.01,2013-04-20 22:48:00,
2013-04-20 18:53:00,45.4,40.9,29.92,SW,236,1.0,8.0,84,0.00,,---,0.31,VWS V14.01,2013-04-20 22:53:00,
2013-04-20 18:58:00,45.2,41.0,29.93,SW,218,2.0,8.0,85,0.00,,---,0.31,VWS V14.01,2013-04-20 22:58:00,
2013-04-20 19:00:00,45.1,40.9,29.93,SW,218,4.0,8.0,85,0.00,,---,0.31,VWS V14.01,2013-04-20 23:00:00,
2013-04-20 19:03:00,45.0,40.8,29.93,SSW,201,1.0,4.0,85,0.00,,---,0.31,VWS V14.01,2013-04-20 23:03:00,
2013-04-20 19:08:00,44.9,40.7,29.93,WSW,253,0.0,4.0,85,0.00,,---,0.31,VWS V14.01,2013-04-20 23:08:00,
2013-04-20 19:13:00,44.7,40.5,29.94,WSW,252,0.0,4.0,85,0.00,,---,0.31,VWS V14.01,2013-04-20 23:13:00,
2013-04-20 19:18:00,44.5,40.6,29.95,WSW,252,0.0,4.0,86,0.00,,---,0.31,VWS V14.01,2013-04-20 23:18:00,
2013-04-20 19:23:00,44.4,40.5,29.95,West,279,0.0,4.0,86,0.00,,---,0.31,VWS V14.01,2013-04-20 23:23:00,
2013-04-20 19:28:00,44.4,40.5,29.95,West,266,0.0,4.0,86,0.00,,---,0.31,VWS V14.01,2013-04-20 23:28:00,
2013-04-20 19:30:00,44.3,40.4,29.95,West,278,0.0,4.0,86,0.00,,---,0.31,VWS V14.01,2013-04-20 23:30:00,
2013-04-20 19:33:00,44.3,40.7,29.96,West,278,0.0,0.0,87,0.00,,---,0.31,VWS V14.01,2013-04-20 23:33:00,
2013-04-20 19:38:00,44.2,40.6,29.96,West,278,0.0,0.0,87,0.00,,---,0.31,VWS V14.01,2013-04-20 23:38:00,
2013-04-20 19:43:00,44.1,40.5,29.97,West,278,0.0,0.0,87,0.00,,---,0.31,VWS V14.01,2013-04-20 23:43:00,
2013-04-20 19:48:00,44.0,40.7,29.97,West,278,0.0,0.0,88,0.00,,---,0.31,VWS V14.01,2013-04-20 23:48:00,
2013-04-20 19:53:00,43.8,40.5,29.97,West,278,0.0,0.0,88,0.00,,---,0.31,VWS V14.01,2013-04-20 23:53:00,
2013-04-20 19:58:00,43.5,40.2,29.98,West,278,0.0,0.0,88,0.00,,---,0.31,VWS V14.01,2013-04-20 23:58:00,
2013-04-20 20:00:00,43.5,40.5,29.98,West,278,0.0,0.0,89,0.00,,---,0.31,VWS V14.01,2013-04-21 00:00:00,
2013-04-20 20:02:00,43.4,40.4,29.98,West,278,0.0,0.0,89,0.00,,---,0.31,VWS V14.01,2013-04-21 00:02:00,
2013-04-20 20:07:00,43.4,40.4,29.98,West,261,0.0,0.0,89,0.00,,---,0.31,VWS V14.01,2013-04-21 00:07:00,
2013-04-20 20:12:00,43.2,39.9,29.98,West,260,0.0,0.0,88,0.00,,---,0.31,VWS V14.01,2013-04-21 00:12:00,
2013-04-20 20:17:00,43.2,39.9,29.99,WSW,257,0.0,0.0,88,0.00,,---,0.31,VWS V14.01,2013-04-21 00:17:00,
2013-04-20 20:22:00,43.2,39.6,29.99,WSW,257,0.0,0.0,87,0.00,,---,0.31,VWS V14.01,2013-04-21 00:22:00,
2013-04-20 20:27:00,43.1,39.5,29.99,WSW,257,0.0,0.0,87,0.00,,---,0.31,VWS V14.01,2013-04-21 00:27:00,
2013-04-20 20:30:00,43.0,39.4,29.99,WSW,257,0.0,0.0,87,0.00,,---,0.31,VWS V14.01,2013-04-21 00:30:00,
2013-04-20 20:32:00,43.0,39.4,29.99,SW,220,0.0,0.0,87,0.00,,---,0.31,VWS V14.01,2013-04-21 00:32:00,
2013-04-20 20:37:00,42.9,39.3,30.00,SW,221,0.0,0.0,87,0.00,,---,0.31,VWS V14.01,2013-04-21 00:37:00,
2013-04-20 20:44:00,42.8,39.2,30.00,SW,222,0.0,0.0,87,0.00,,---,0.31,VWS V14.01,2013-04-21 00:44:00,
2013-04-20 20:52:00,42.9,39.0,30.01,SW,233,0.0,0.0,86,0.00,,---,0.31,VWS V14.01,2013-04-21 00:52:00,
2013-04-20 20:57:00,42.7,38.8,30.01,SW,235,0.0,0.0,86,0.00,,---,0.31,VWS V14.01,2013-04-21 00:57:00,
2013-04-20 21:00:00,42.5,38.6,30.01,WSW,252,0.0,0.0,86,0.00,,---,0.31,VWS V14.01,2013-04-21 01:00:00,
2013-04-20 21:02:00,42.5,38.6,30.01,WSW,252,0.0,0.0,86,0.00,,---,0.31,VWS V14.01,2013-04-21 01:02:00,
2013-04-20 21:07:00,42.6,38.7,30.01,WNW,284,0.0,2.0,86,0.00,,---,0.31,VWS V14.01,2013-04-21 01:07:00,
2013-04-20 21:12:00,42.7,38.8,30.01,WSW,240,0.0,2.0,86,0.00,,---,0.31,VWS V14.01,2013-04-21 01:12:00,
2013-04-20 21:17:00,42.5,38.6,30.02,West,259,0.0,2.0,86,0.00,,---,0.31,VWS V14.01,2013-04-21 01:17:00,
2013-04-20 21:22:00,42.3,38.7,30.02,WSW,244,0.0,2.0,87,0.00,,---,0.31,VWS V14.01,2013-04-21 01:22:00,
2013-04-20 21:27:00,42.3,38.7,30.02,West,261,0.0,2.0,87,0.00,,---,0.31,VWS V14.01,2013-04-21 01:27:00,
2013-04-20 21:30:00,42.3,39.0,30.02,West,261,0.0,2.0,88,0.00,,---,0.31,VWS V14.01,2013-04-21 01:30:00,
2013-04-20 21:32:00,42.3,39.0,30.02,SW,231,0.0,1.0,88,0.00,,---,0.31,VWS V14.01,2013-04-21 01:32:00,
2013-04-20 21:37:00,42.3,39.0,30.03,WSW,248,0.0,2.0,88,0.00,,---,0.31,VWS V14.01,2013-04-21 01:37:00,
2013-04-20 21:42:00,42.3,39.0,30.03,West,281,0.0,2.0,88,0.00,,---,0.31,VWS V14.01,2013-04-21 01:42:00,
2013-04-20 21:47:00,42.2,38.9,30.04,West,277,0.0,2.0,88,0.00,,---,0.31,VWS V14.01,2013-04-21 01:47:00,
2013-04-20 21:52:00,42.4,38.5,30.04,West,274,0.0,2.0,86,0.00,,---,0.31,VWS V14.01,2013-04-21 01:52:00,
2013-04-20 21:57:00,42.7,38.5,30.05,WNW,300,0.0,2.0,85,0.00,,---,0.31,VWS V14.01,2013-04-21 01:57:00,
2013-04-20 22:00:00,42.9,38.4,30.05,WNW,295,1.0,2.0,84,0.00,,---,0.31,VWS V14.01,2013-04-21 02:00:00,
2013-04-20 22:02:00,42.9,38.7,30.05,WNW,295,0.0,0.0,85,0.00,,---,0.31,VWS V14.01,2013-04-21 02:02:00,
2013-04-20 22:07:00,43.2,38.4,30.05,WNW,283,1.0,4.0,83,0.00,,---,0.31,VWS V14.01,2013-04-21 02:07:00,
2013-04-20 22:12:00,43.2,38.7,30.06,West,267,2.0,4.0,84,0.00,,---,0.31,VWS V14.01,2013-04-21 02:12:00,
2013-04-20 22:17:00,44.1,37.0,30.06,NNW,332,3.0,9.0,76,0.00,,---,0.31,VWS V14.01,2013-04-21 02:17:00,
2013-04-20 22:22:00,45.6,35.7,30.06,WNW,301,2.0,13.0,68,0.00,,---,0.31,VWS V14.01,2013-04-21 02:22:00,
2013-04-20 22:27:00,46.5,35.0,30.06,NNW,345,3.0,13.0,64,0.00,,---,0.31,VWS V14.01,2013-04-21 02:27:00,
2013-04-20 22:30:00,47.0,35.1,30.07,WNW,302,0.0,13.0,63,0.00,,---,0.31,VWS V14.01,2013-04-21 02:30:00,
2013-04-20 22:32:00,47.0,34.7,30.07,NW,319,2.0,4.0,62,0.00,,---,0.31,VWS V14.01,2013-04-21 02:32:00,
2013-04-20 22:37:00,47.3,34.1,30.07,NNW,342,9.0,9.0,60,0.00,,---,0.31,VWS V14.01,2013-04-21 02:37:00,
2013-04-20 22:42:00,47.5,34.3,30.08,NNW,328,2.0,12.0,60,0.00,,---,0.31,VWS V14.01,2013-04-21 02:42:00,
2013-04-20 22:47:00,47.3,34.5,30.08,NW,324,2.0,12.0,61,0.00,,---,0.31,VWS V14.01,2013-04-21 02:47:00,
2013-04-20 22:52:00,46.9,35.0,30.09,NW,324,2.0,12.0,63,0.00,,---,0.31,VWS V14.01,2013-04-21 02:52:00,
2013-04-20 22:57:00,46.3,35.2,30.09,NW,314,2.0,12.0,65,0.00,,---,0.31,VWS V14.01,2013-04-21 02:57:00,
2013-04-20 23:00:00,45.9,35.2,30.09,NNW,338,1.0,12.0,66,0.00,,---,0.31,VWS V14.01,2013-04-21 03:00:00,
2013-04-20 23:02:00,45.8,35.5,30.09,NNW,333,1.0,2.0,67,0.00,,---,0.31,VWS V14.01,2013-04-21 03:02:00,
2013-04-20 23:07:00,45.4,35.5,30.09,NNW,329,2.0,6.0,68,0.00,,---,0.31,VWS V14.01,2013-04-21 03:07:00,
2013-04-20 23:12:00,44.9,35.4,30.10,NNW,348,2.0,6.0,69,0.00,,---,0.31,VWS V14.01,2013-04-21 03:12:00,
2013-04-20 23:17:00,44.5,35.0,30.10,NNW,330,1.0,6.0,69,0.00,,---,0.31,VWS V14.01,2013-04-21 03:17:00,
2013-04-20 23:22:00,44.2,35.0,30.10,NW,316,1.0,6.0,70,0.00,,---,0.31,VWS V14.01,2013-04-21 03:22:00,
2013-04-20 23:27:00,44.0,34.9,30.10,WNW,295,2.0,6.0,70,0.00,,---,0.31,VWS V14.01,2013-04-21 03:27:00,
2013-04-20 23:30:00,43.8,34.3,30.11,NNW,328,3.0,6.0,69,0.00,,---,0.31,VWS V14.01,2013-04-21 03:30:00,
2013-04-20 23:32:00,43.8,34.3,30.11,NW,321,3.0,7.0,69,0.00,,---,0.31,VWS V14.01,2013-04-21 03:32:00,
2013-04-20 23:37:00,43.7,34.2,30.12,NW,323,2.0,9.0,69,0.00,,---,0.31,VWS V14.01,2013-04-21 03:37:00,
2013-04-20 23:42:00,43.4,33.9,30.12,NNW,327,4.0,9.0,69,0.00,,---,0.31,VWS V14.01,2013-04-21 03:42:00,
2013-04-20 23:47:00,43.1,33.6,30.12,NNW,334,7.0,9.0,69,0.00,,---,0.31,VWS V14.01,2013-04-21 03:47:00,
2013-04-20 23:52:00,43.0,33.2,30.12,NE,40,1.0,9.0,68,0.00,,---,0.31,VWS V14.01,2013-04-21 03:52:00,
2013-04-20 23:57:00,43.0,33.2,30.13,NW,314,7.0,13.0,68,0.00,,---,0.31,VWS V14.01,2013-04-21 03:57:00,